Tiempo atmosférico en la estación meteorológica de Benahavis, Málaga (399 m.)



Fecha
DESCASC
Temp. máxima en grados centígrados (hora)
DESCASC
Temp. mínima en grados centígrados (hora)
DESCASC
Temp. media en grados centígrados
DESCASC
Racha de viento máxima en m/sg (hora)
DESCASC
Velocidad máxima media en intervalos de 10 minutos(hora)
DESCASC
Precipitaciones diarias en mm
DESCASC
Precipitaciones de 00:00 a 06:00 en mm
DESCASC
Precipitaciones de 06:00 a 12:00 en mm
DESCASC
Precipitaciones de 12:00 a 18:00 en mm
DESCASC
Precipitaciones de 18:00 a 24:00 en mm
DESCASC
18-10-2018 17.3 (00:00) 10.5 (23:59) 13.9 14.72 (09:20) 6.94 (09:10) 21.8 0 11.6 10.2 0
17-10-2018 23.2 (15:30) 13.3 (06:10) 18.3 5 (13:30) 2.78 (13:30) 0 0 0 0 0
16-10-2018 20.9 (14:40) 13.1 (07:20) 17 5.56 (14:20) 2.78 (21:50) 0.2 0.2 0 0 0
15-10-2018 22.4 (16:40) 12.2 (07:40) 17.3 11.39 (18:00) 6.11 (15:10) 7.4 0 0 0 7.4
14-10-2018 22.5 (15:10) 14.1 (00:00) 18.3 9.17 (16:40) 4.44 (16:40) 3 0 2.8 0.2 0
13-10-2018 23.4 (12:40) 15.1 (00:00) 19.3 5.28 (14:50) 3.06 (14:50) 0 0 0 0 0
12-10-2018 25.4 (16:40) 15.6 (00:00) 20.5 5.83 (15:50) 2.78 (14:00) 0 0 0 0 0
11-10-2018 23.8 (16:50) 17.2 (00:10) 20.5 8.89 (15:50) 4.72 (15:50) 14.6 0 13.8 0.8 0
10-10-2018 21.8 (14:00) 14.9 (00:00) 18.3 11.94 (01:20) 6.94 (01:00) 148.6 148.4 0 0 0.2
09-10-2018 19.4 (16:10) 16 (22:50) 17.7 10 (22:50) 5.28 (22:50) 43 0 4 0.8 38.2
08-10-2018 24.3 (00:00) 16.9 (08:40) 20.6 6.39 (13:50) 3.06 (13:50) 0 0 0 0 0
07-10-2018 32.9 (17:20) 18.2 (01:30) 25.6 11.11 (14:30) 6.67 (16:20) 0 0 0 0 0
06-10-2018 26 (17:10) 15.1 (05:50) 20.6 6.11 (16:10) 2.78 (15:30) 0 0 0 0 0
05-10-2018 23.5 (13:10) 15.1 (06:10) 19.3 7.78 (13:50) 3.06 (13:30) 0 0 0 0 0
04-10-2018 23.9 (16:00) 15.6 (00:00) 19.8 6.11 (14:00) 2.78 (14:50) 0 0 0 0 0
03-10-2018 22.8 (12:40) 15.6 (00:00) 19.2 6.94 (12:50) 3.33 (16:00) 0 0 0 0 0
02-10-2018 24.5 (14:30) 17.5 (00:00) 21 6.39 (14:00) 3.33 (02:50) 0 0 0 0 0
01-10-2018 30.1 (15:00) 18.7 (00:00) 24.4 6.39 (16:10) 2.78 (13:50) 4.8 0 0 4.8 0
30-09-2018 25.4 (17:00) 16 (00:00) 20.7 5 (13:20) 2.5 (14:40) 0 0 0 0 0
29-09-2018 25.3 (16:30) 16.4 (00:00) 20.8 6.67 (13:40) 3.33 (14:20) 0 0 0 0 0
28-09-2018 -- (--) -- (--) -- -- (--) -- (--) -- -- 0 0 0
27-09-2018 -- (--) -- (--) -- -- (--) -- (--) -- -- -- -- --
26-09-2018 -- (--) -- (--) -- -- (--) -- (--) -- -- -- -- --
25-09-2018 -- (--) -- (--) -- -- (--) -- (--) -- -- -- -- --
24-09-2018 -- (--) -- (--) -- -- (--) -- (--) -- -- -- -- --
23-09-2018 30.3 (16:20) 19.4 (05:50) 24.8 7.5 (13:40) 3.06 (15:50) 0 0 0 0 0
22-09-2018 28.3 (16:20) 18.8 (08:30) 23.5 7.5 (15:10) 3.06 (13:40) 0 0 0 0 0
21-09-2018 29.1 (17:40) 18.4 (07:20) 23.8 5.28 (14:30) 3.06 (14:30) 0 0 0 0 0
20-09-2018 25.8 (15:30) 18.7 (05:40) 22.3 6.11 (14:20) 3.33 (16:30) 0 0 0 0 0

Gráficas

Temp. máximas Temp. mínimas Temp. medias Precipitaciones Rachas de viento máximas Velocidades máximas media en intervalos de 10 minutos

Datos horarios

Fecha y hora oficial Temperatura (ºC) Velocidad del viento (km/h) Dirección del viento Racha (km/h) Dirección de racha Precipitación (mm) Presión (hPa) Tendencia (hPa) Humedad (%)
2018-10-19 23:00:00 14.7 13 Nordeste 27 Nordeste 0 -- -- 70
2018-10-19 22:00:00 14.4 11 Nordeste 22 Este 0 -- -- 73
2018-10-19 21:00:00 13.8 8 Nordeste 19 Nordeste 0 -- -- 81
2018-10-19 20:00:00 13.4 8 Nordeste 22 Nordeste 1.2 -- -- 87
2018-10-19 19:00:00 14 9 Nordeste 22 Nordeste 0.4 -- -- 83
2018-10-19 18:00:00 15 9 Nordeste 24 Nordeste 0.4 -- -- 78
2018-10-19 17:00:00 15.3 12 Nordeste 23 Nordeste 0 -- -- 69
2018-10-19 16:00:00 15 11 Nordeste 24 Nordeste 0 -- -- 75
2018-10-19 15:00:00 14.8 10 Nordeste 21 Nordeste 0 -- -- 80
2018-10-19 14:00:00 15.8 8 Nordeste 24 Nordeste 0 -- -- 75
2018-10-19 13:00:00 16.5 10 Nordeste 24 Nordeste 0 -- -- 66
2018-10-19 12:00:00 16 7 Nordeste 18 Nordeste 0 -- -- 67
2018-10-19 11:00:00 14.8 5 Nordeste 13 Nordeste 0 -- -- 70
2018-10-19 10:00:00 13.2 11 Norte 21 Nordeste 0 -- -- 75
2018-10-19 09:00:00 11.9 6 Nordeste 12 Nordeste 0 -- -- 83
2018-10-19 08:00:00 10.7 7 Nordeste 13 Nordeste 0 -- -- 93
2018-10-19 07:00:00 10.2 0 Calma 3 Este 0 -- -- 93
2018-10-19 06:00:00 10.3 0 Calma 6 Nordeste 0 -- -- 91
2018-10-19 05:00:00 10 0 Calma 8 Este 0 -- -- 91
2018-10-19 04:00:00 10.3 5 Nordeste 8 Este 0 -- -- 88
2018-10-19 03:00:00 10.4 4 Sudeste 7 Sudeste 0 -- -- 87
2018-10-19 02:00:00 10.1 0 Calma 4 Norte 0 -- -- 92
2018-10-19 01:00:00 10.1 2 Este 5 Nordeste 0 -- -- 92
2018-10-19 00:00:00 10.5 3 Este 8 Nordeste 0 -- -- 94
2018-10-18 23:00:00 10.8 5 Nordeste 8 Nordeste 0 -- -- 95
2018-10-18 22:00:00 11.2 5 Nordeste 6 Nordeste 0 -- -- 95
2018-10-18 21:00:00 11.5 0 Calma 5 Nordeste 0 -- -- 94
2018-10-18 20:00:00 12.3 4 Nordeste 6 Nordeste 0 -- -- 91
2018-10-18 19:00:00 14.2 0 Calma 8 Sudoeste 0 -- -- 86
2018-10-18 18:00:00 14.2 0 Calma 7 Sudoeste 0.4 -- -- 90
2018-10-18 17:00:00 11.5 0 Calma 24 Sudoeste 9.6 -- -- 93
2018-10-18 16:00:00 14.1 6 Nordeste 13 Nordeste 0 -- -- 84
2018-10-18 15:00:00 13.7 8 Nordeste 22 Nordeste 0 -- -- 85
2018-10-18 14:00:00 13.9 5 Nordeste 17 Nordeste 0 -- -- 85
2018-10-18 13:00:00 13.7 8 Nordeste 15 Nordeste 0.2 -- -- 86
2018-10-18 12:00:00 11.5 0 Calma 9 Sur 0 -- -- 96
2018-10-18 11:00:00 11.5 7 Este 28 Sudoeste 2.8 -- -- 91
2018-10-18 10:00:00 11.5 14 Sudoeste 53 Sudoeste 5.4 -- -- 96
2018-10-18 09:00:00 14.4 15 Sudoeste 38 Sudoeste 2.8 -- -- 95
2018-10-18 08:00:00 15.3 5 Sudoeste 10 Sudoeste 0.6 -- -- 95
2018-10-18 07:00:00 15.4 2 Sudoeste 6 Este 0 -- -- 93
2018-10-18 06:00:00 15.6 2 Sudeste 10 Este 0 -- -- 92
2018-10-18 05:00:00 15.6 2 Nordeste 5 Nordeste 0 -- -- 93
2018-10-18 04:00:00 15.3 0 Calma 9 Este 0 -- -- 91
2018-10-18 03:00:00 15.8 4 Nordeste 8 Nordeste 0 -- -- 87
2018-10-18 02:00:00 16.5 0 Calma 5 Nordeste 0 -- -- 84
2018-10-18 01:00:00 16.4 3 Este 7 Nordeste 0 -- -- 84
2018-10-18 00:00:00 17.3 0 Calma 10 Este 0 -- -- 81
2018-10-17 23:00:00 17.6 7 Este 10 Nordeste 0 -- -- 78
2018-10-17 22:00:00 17.9 4 Nordeste 6 Este 0 -- -- 78
2018-10-17 21:00:00 17.5 0 Calma 3 Sur 0 -- -- 79
2018-10-17 20:00:00 18.3 0 Calma 5 Sudoeste 0 -- -- 76
2018-10-17 19:00:00 20.6 2 Sudoeste 11 Oeste 0 -- -- 68
2018-10-17 18:00:00 21.6 6 Sudoeste 11 Noroeste 0 -- -- 66
2018-10-17 17:00:00 21 5 Sudoeste 15 Sudoeste 0 -- -- 68
2018-10-17 16:00:00 22.8 9 Sudoeste 17 Sudoeste 0 -- -- 61
2018-10-17 15:00:00 22.9 7 Sudoeste 17 Sudoeste 0 -- -- 60
2018-10-17 14:00:00 22.7 8 Sudoeste 18 Sudoeste 0 -- -- 61
2018-10-17 13:00:00 22 6 Sur 13 Sur 0 -- -- 62
2018-10-17 12:00:00 20.9 3 Sudoeste 8 Sudoeste 0 -- -- 62
2018-10-17 11:00:00 18.7 2 Sur 5 Sur 0 -- -- 72
2018-10-17 10:00:00 14.7 0 Calma 2 Sur 0 -- -- 81
2018-10-17 09:00:00 13.7 0 Calma 3 Sudeste 0 -- -- 87
2018-10-17 08:00:00 13.6 2 Este 4 Nordeste 0 -- -- 87
2018-10-17 07:00:00 13.4 0 Calma 3 Este 0 -- -- 91
2018-10-17 06:00:00 13.4 0 Calma 2 Este 0 -- -- 92
2018-10-17 05:00:00 13.5 0 Calma 4 Sudeste 0 -- -- 92
2018-10-17 04:00:00 13.9 0 Calma 3 Este 0 -- -- 91
2018-10-17 03:00:00 14.3 0 Calma 6 Este 0 -- -- 87
2018-10-17 02:00:00 14.4 3 Nordeste 6 Nordeste 0 -- -- 86
2018-10-17 01:00:00 15 0 Calma 12 Nordeste 0 -- -- 84
2018-10-17 00:00:00 16 8 Nordeste 13 Nordeste 0 -- -- 79
2018-10-16 23:00:00 16.6 8 Nordeste 18 Nordeste 0 -- -- 76
2018-10-16 22:00:00 16.8 9 Nordeste 13 Nordeste 0 -- -- 76
2018-10-16 21:00:00 16.7 0 Calma -- -- 0 -- -- 81
2018-10-16 20:00:00 17.8 0 Calma -- -- 0 -- -- 80
2018-10-16 19:00:00 18.5 0 Calma 8 Este 0 -- -- 80
2018-10-16 18:00:00 18.4 5 Nordeste 10 Nordeste 0 -- -- 74
2018-10-16 17:00:00 19.3 6 Nordeste 11 Nordeste 0 -- -- 69
2018-10-16 16:00:00 18.4 4 Este 14 Este 0 -- -- 75
2018-10-16 15:00:00 20.5 3 Sur 20 Sudoeste 0 -- -- 68
2018-10-16 14:00:00 18.7 3 Sudeste 15 Sudoeste 0 -- -- 76
2018-10-16 13:00:00 19.3 4 Sudoeste 9 Sudoeste 0 -- -- 78
2018-10-16 12:00:00 18.3 2 Este 9 Nordeste 0 -- -- 78
2018-10-16 11:00:00 17.5 3 Este 8 Nordeste 0 -- -- 80
2018-10-16 10:00:00 14.2 0 Calma 9 Nordeste 0 -- -- 94
2018-10-16 09:00:00 13.6 5 Norte 13 Nordeste 0 -- -- 95
2018-10-16 08:00:00 13.4 4 Este 9 Este 0 -- -- 94
2018-10-16 07:00:00 13.2 8 Nordeste 10 Este 0 -- -- 97
2018-10-16 06:00:00 13.6 3 Este 8 Este 0 -- -- 96
2018-10-16 05:00:00 13.6 3 Sudeste 12 Nordeste 0 -- -- 97
2018-10-16 04:00:00 14 3 Este 7 Noroeste 0 -- -- 98
2018-10-16 03:00:00 14.1 2 Sudoeste 8 Oeste 0 -- -- 99
2018-10-16 02:00:00 14.4 5 Nordeste 12 Sudoeste 0 -- -- 99
2018-10-16 01:00:00 14.6 6 Sudoeste 18 Sudoeste 0.2 -- -- 99
2018-10-16 00:00:00 14.6 5 Sudoeste 14 Sudoeste 0.6 -- -- 99
2018-10-15 23:00:00 14.4 4 Sudoeste 31 Sudoeste 3.6 -- -- 98
2018-10-15 22:00:00 14.3 16 Sudoeste 30 Sudoeste 3 -- -- 97
2018-10-15 21:00:00 14.9 15 Sudoeste 34 Sudoeste 0.2 -- -- 91
2018-10-15 20:00:00 15.6 8 Sudoeste 22 Sudoeste 0 -- -- 85
2018-10-15 19:00:00 16.7 12 Sudoeste 28 Sudoeste 0 -- -- 75
2018-10-15 18:00:00 18.6 22 Sudoeste 41 Sudoeste 0 -- -- 61
2018-10-15 17:00:00 22.4 14 Sudoeste 34 Sudoeste 0 -- -- 48
2018-10-15 16:00:00 21.3 18 Sudoeste 38 Sudoeste 0 -- -- 47
2018-10-15 15:00:00 21.1 17 Sudoeste 29 Sudoeste 0 -- -- 44
2018-10-15 14:00:00 18.9 7 Sudoeste 21 Sudoeste 0 -- -- 44
2018-10-15 13:00:00 19.2 9 Sudoeste 23 Sudoeste 0 -- -- 39
2018-10-15 12:00:00 18 5 Sur 17 Sudoeste 0 -- -- 37
2018-10-15 11:00:00 16.3 8 Sudoeste 16 Sudoeste 0 -- -- 37
2018-10-15 10:00:00 12.6 4 Sur 8 Sur 0 -- -- 59
2018-10-15 09:00:00 12.6 2 Este 29 Sur 0 -- -- 61
2018-10-15 08:00:00 12.4 5 Sudoeste 15 Oeste 0 -- -- 66
2018-10-15 07:00:00 12.5 5 Sudoeste 24 Oeste 0 -- -- 69
2018-10-15 06:00:00 12.6 7 Sudoeste 21 Sudoeste 0 -- -- 68
2018-10-15 05:00:00 12.6 3 Oeste 14 Sudoeste 0 -- -- 68
2018-10-15 04:00:00 12.8 4 Oeste 12 Sudoeste 0 -- -- 69
2018-10-15 03:00:00 13.1 6 Sudoeste 27 Sur 0 -- -- 67
2018-10-15 02:00:00 13.6 6 Sudoeste 19 Sudoeste 0 -- -- 66
2018-10-15 01:00:00 14.1 6 Sudoeste 19 Sudoeste 0 -- -- 65
2018-10-15 00:00:00 14.1 6 Sudoeste 18 Sudoeste 0 -- -- 64
2018-10-14 23:00:00 14.5 4 Oeste 29 Sudoeste 0 -- -- 59
2018-10-14 22:00:00 15.3 10 Sudoeste 30 Sudoeste 0 -- -- 56
2018-10-14 21:00:00 15.4 9 Sudoeste 26 Sudoeste 0 -- -- 57
2018-10-14 20:00:00 16.4 8 Noroeste 32 Norte 0 -- -- 51
2018-10-14 19:00:00 18.9 10 Noroeste 30 Oeste 0 -- -- 41
2018-10-14 18:00:00 21 7 Sudoeste 24 Sudoeste 0 -- -- 44
2018-10-14 17:00:00 21 10 Sudoeste 33 Sudoeste 0 -- -- 42
2018-10-14 16:00:00 21.5 13 Sudoeste 28 Oeste 0 -- -- 38
2018-10-14 15:00:00 22.3 14 Sudoeste 31 Sudoeste 0.2 -- -- 44
2018-10-14 14:00:00 21.4 11 Sudoeste 22 Sudoeste 0 -- -- 48
2018-10-14 13:00:00 20 5 Nordeste 19 Sudoeste 0 -- -- 67
2018-10-14 12:00:00 17.5 5 Oeste 19 Oeste 0 -- -- 88
2018-10-14 11:00:00 16.3 13 Sudoeste 22 Sudoeste 1 -- -- 93
2018-10-14 10:00:00 17.1 7 Sudoeste 22 Oeste 0.4 -- -- 98
2018-10-14 09:00:00 17.7 6 Sudoeste 13 Oeste 0.4 -- -- 99
2018-10-14 08:00:00 17.3 6 Sudoeste 10 Sudoeste 1 -- -- 98
2018-10-14 07:00:00 16.9 3 Sudoeste 7 Sudoeste 0 -- -- 96
2018-10-14 06:00:00 17 4 Sudoeste 9 Sudoeste 0 -- -- 97
2018-10-14 05:00:00 16.5 0 Calma 6 Nordeste 0 -- -- 97
2018-10-14 04:00:00 17 2 Nordeste 6 Nordeste 0 -- -- 97
2018-10-14 03:00:00 16.9 0 Calma 4 Nordeste 0 -- -- 97
2018-10-14 02:00:00 16.9 0 Calma 4 Este 0 -- -- 97
2018-10-14 01:00:00 17.2 0 Calma 5 Este 0 -- -- 96
2018-10-14 00:00:00 17.9 0 Calma 4 Nordeste 0 -- -- 96
2018-10-13 23:00:00 18.1 0 Calma 3 Norte 0 -- -- 95
2018-10-13 22:00:00 18.7 0 Calma 8 Este 0 -- -- 93
2018-10-13 21:00:00 19.5 3 Nordeste 7 Norte 0 -- -- 92
2018-10-13 20:00:00 19.5 3 Este 6 Nordeste 0 -- -- 92
2018-10-13 19:00:00 20.3 4 Nordeste 12 Nordeste 0 -- -- 87
2018-10-13 18:00:00 21.3 3 Norte 12 Nordeste 0 -- -- 83
2018-10-13 17:00:00 21.6 6 Nordeste 12 Nordeste 0 -- -- 81
2018-10-13 16:00:00 22.6 2 Sudoeste 13 Nordeste 0 -- -- 77
2018-10-13 15:00:00 22.7 8 Nordeste 19 Norte 0 -- -- 76
2018-10-13 14:00:00 23.2 6 Nordeste 18 Nordeste 0 -- -- 70
2018-10-13 13:00:00 23.3 6 Nordeste 15 Norte 0 -- -- 65
2018-10-13 12:00:00 22.8 9 Nordeste 15 Nordeste 0 -- -- 60
2018-10-13 11:00:00 22.2 3 Este 9 Sudeste 0 -- -- 60
2018-10-13 10:00:00 18.5 3 Sudeste 9 Nordeste 0 -- -- 66
2018-10-13 09:00:00 16 2 Este 5 Este 0 -- -- 78
2018-10-13 08:00:00 15.3 0 Calma 3 Sudeste 0 -- -- 86
2018-10-13 07:00:00 15.3 0 Calma 3 Sudeste 0 -- -- 92
2018-10-13 06:00:00 15.3 0 Calma 2 Este -- -- -- 93
2018-10-13 05:00:00 15.9 0 Calma 8 Nordeste 0 -- -- 92
2018-10-13 04:00:00 16.6 4 Este 9 Nordeste 0 -- -- 89
2018-10-13 03:00:00 16.3 0 Calma 4 Sudeste 0 -- -- 94
2018-10-13 02:00:00 16.5 3 Nordeste 4 Nordeste 0 -- -- 94
2018-10-13 01:00:00 16.9 0 Calma 8 Sudeste 0 -- -- 94
2018-10-13 00:00:00 17.3 0 Calma 3 Nordeste 0 -- -- 94
2018-10-12 23:00:00 17.6 0 Calma 4 Nordeste 0 -- -- 93
2018-10-12 22:00:00 18.1 0 Calma 6 Este 0 -- -- 90
2018-10-12 21:00:00 19.1 4 Nordeste 6 Nordeste 0 -- -- 87
2018-10-12 20:00:00 20.7 2 Nordeste 9 Nordeste 0 -- -- 79
2018-10-12 19:00:00 24.5 4 Sudoeste 10 Sudoeste 0 -- -- 68
2018-10-12 18:00:00 24.9 5 Sudoeste 14 Sudoeste 0 -- -- 68
2018-10-12 17:00:00 25.3 7 Sudoeste 15 Sudoeste 0 -- -- 64
2018-10-12 16:00:00 25 8 Sudoeste 21 Sudoeste 0 -- -- 64
2018-10-12 15:00:00 24.3 9 Sudoeste 17 Sudoeste 0 -- -- 64
2018-10-12 14:00:00 24.1 10 Sudoeste 18 Sudoeste 0 -- -- 67
2018-10-12 13:00:00 24.2 5 Sudoeste 10 Sudoeste 0 -- -- 66
2018-10-12 12:00:00 22.8 3 Sudoeste 8 Oeste 0 -- -- 63
2018-10-12 11:00:00 20.8 3 Sudoeste 7 Sudoeste 0 -- -- 67
2018-10-12 10:00:00 17.4 0 Calma 4 Nordeste 0 -- -- 76
2018-10-12 09:00:00 16 0 Calma 5 Nordeste 0 -- -- 79
2018-10-12 08:00:00 15.9 0 Calma 3 Sudeste 0 -- -- 80
2018-10-12 07:00:00 15.8 2 Sudeste 3 Sudeste 0 -- -- 80
2018-10-12 06:00:00 15.8 3 Nordeste 6 Nordeste 0 -- -- 81
2018-10-12 05:00:00 16.1 0 Calma 6 Nordeste 0 -- -- 79
2018-10-12 04:00:00 16.3 6 Nordeste 8 Nordeste 0 -- -- 77
2018-10-12 03:00:00 16.3 0 Calma 3 Nordeste 0 -- -- 81
2018-10-12 02:00:00 16.7 3 Nordeste 6 Este 0 -- -- 77
2018-10-12 01:00:00 16.7 2 Este 7 Nordeste 0 -- -- 76
2018-10-12 00:00:00 17.3 6 Nordeste 9 Nordeste 0 -- -- 77
2018-10-11 23:00:00 17.5 4 Este 9 Sudoeste 0 -- -- 76
2018-10-11 22:00:00 18.3 5 Sudoeste 19 Sudoeste 0 -- -- 79
2018-10-11 21:00:00 19.1 10 Sudoeste 23 Oeste 0 -- -- 77
2018-10-11 20:00:00 20.4 9 Sudoeste 21 Sur 0 -- -- 71
2018-10-11 19:00:00 22.8 9 Sudoeste 25 Sudoeste 0 -- -- 64
2018-10-11 18:00:00 23.8 17 Sudoeste 27 Sudoeste 0 -- -- 58
2018-10-11 17:00:00 23.6 13 Sudoeste 25 Sudoeste 0 -- -- 63
2018-10-11 16:00:00 22.5 14 Sudoeste 32 Sudoeste 0 -- -- 68
2018-10-11 15:00:00 20.9 8 Sudoeste 31 Sudoeste 0 -- -- 85
2018-10-11 14:00:00 18.8 9 Sudoeste 25 Sudoeste 0 -- -- 99
2018-10-11 13:00:00 18.1 7 Sudoeste 11 Sudoeste 0.8 -- -- 99
2018-10-11 12:00:00 17.6 8 Sudoeste 14 Oeste 2.6 -- -- 99
2018-10-11 11:00:00 17.6 6 Sudoeste 10 Sudoeste 5 -- -- 98
2018-10-11 10:00:00 17.7 3 Sudoeste 9 Sudoeste 1.4 -- -- 98
2018-10-11 09:00:00 17.8 0 Calma 6 Nordeste 2.8 -- -- 98
2018-10-11 08:00:00 17.9 3 Nordeste 10 Norte 1.8 -- -- 97
2018-10-11 07:00:00 18 2 Nordeste 5 Este 0.2 -- -- 95
2018-10-11 06:00:00 17.8 0 Calma 2 Nordeste 0 -- -- 95
2018-10-11 05:00:00 17.8 0 Calma 6 Nordeste 0 -- -- 96
2018-10-11 04:00:00 17.7 3 Nordeste 6 Nordeste 0 -- -- 95
2018-10-11 03:00:00 17.8 3 Nordeste 6 Nordeste 0 -- -- 95
2018-10-11 02:00:00 17.8 3 Nordeste 8 Nordeste 0 -- -- 96
2018-10-11 01:00:00 17.5 0 Calma 5 Este 0 -- -- 97
2018-10-11 00:00:00 17.3 0 Calma 9 Este 0 -- -- 96
2018-10-10 23:00:00 17.8 4 Nordeste 10 Nordeste 0 -- -- 96
2018-10-10 22:00:00 18.3 6 Nordeste 11 Nordeste 0 -- -- 96
2018-10-10 21:00:00 18.7 0 Calma 6 Nordeste 0 -- -- 95
2018-10-10 20:00:00 19.1 3 Sudeste 13 Sudoeste 0.2 -- -- 93
2018-10-10 19:00:00 20 6 Sur 11 Sur 0 -- -- 88
2018-10-10 18:00:00 19.8 5 Nordeste 14 Nordeste 0 -- -- 88
2018-10-10 17:00:00 20.3 3 Nordeste 9 Este 0 -- -- 84
2018-10-10 16:00:00 20.9 4 Sudoeste 11 Sur 0 -- -- 80
2018-10-10 15:00:00 20.7 6 Sudoeste 19 Sur 0 -- -- 81
2018-10-10 14:00:00 21.8 6 Sudeste 18 Sur 0 -- -- 73
2018-10-10 13:00:00 19.6 5 Nordeste 13 Nordeste 0 -- -- 87
2018-10-10 12:00:00 18.4 0 Calma 10 Nordeste 0 -- -- 94
2018-10-10 11:00:00 17.6 3 Este 8 Nordeste 0 -- -- 98
2018-10-10 10:00:00 16.5 0 Calma 4 Nordeste 0 -- -- 99
2018-10-10 09:00:00 15.1 3 Este 5 Este 0 -- -- 99
2018-10-10 08:00:00 15 0 Calma 8 Nordeste 0 -- -- 98
2018-10-10 07:00:00 15.2 5 Nordeste 20 Norte 0 -- -- 97
2018-10-10 06:00:00 15.4 10 Nordeste 32 Nordeste 27.8 -- -- 98
2018-10-10 05:00:00 15.6 11 Nordeste 26 Noroeste 57 -- -- 97
2018-10-10 04:00:00 16.5 8 Nordeste 23 Nordeste 17.4 -- -- 98
2018-10-10 03:00:00 16.8 9 Norte 30 Nordeste 12 -- -- 98
2018-10-10 02:00:00 15.9 12 Nordeste 43 Norte 17.4 -- -- 96
2018-10-10 01:00:00 14.9 25 Nordeste 40 Nordeste 16.8 -- -- 97
2018-10-10 00:00:00 16.9 5 Este 24 Este 2.4 -- -- 99
2018-10-09 23:00:00 16.5 12 Nordeste 36 Nordeste 21.2 -- -- 98
2018-10-09 22:00:00 17.5 9 Nordeste 23 Nordeste 11.4 -- -- 98
2018-10-09 21:00:00 17.7 4 Nordeste 12 Nordeste 3.2 -- -- 96
2018-10-09 20:00:00 17.8 0 Calma 17 Nordeste 0 -- -- 92
2018-10-09 19:00:00 18.3 3 Nordeste 19 Nordeste 0 -- -- 91
2018-10-09 18:00:00 18.6 3 Oeste 21 Nordeste 0 -- -- 92
2018-10-09 17:00:00 19 6 Nordeste 17 Nordeste 0 -- -- 89
2018-10-09 16:00:00 19 7 Nordeste 21 Nordeste 0 -- -- 90
2018-10-09 15:00:00 19 8 Nordeste 17 Nordeste 0.2 -- -- 90
2018-10-09 14:00:00 17.7 5 Nordeste 16 Este 0 -- -- 96
2018-10-09 13:00:00 17.8 4 Nordeste 23 Nordeste 0.6 -- -- 98
2018-10-09 12:00:00 17.5 6 Nordeste 21 Nordeste 0.8 -- -- 95
2018-10-09 11:00:00 17.8 6 Nordeste 19 Nordeste 3.2 -- -- 93
2018-10-09 10:00:00 18.1 3 Este 15 Nordeste 0 -- -- 86
2018-10-09 09:00:00 17.6 3 Nordeste 13 Este 0 -- -- 92
2018-10-09 08:00:00 17.3 2 Sudeste 10 Nordeste 0 -- -- 88
2018-10-09 07:00:00 17.7 8 Nordeste 15 Nordeste 0 -- -- 90
2018-10-09 06:00:00 17.6 3 Este 12 Nordeste 0 -- -- 92
2018-10-09 05:00:00 18 5 Nordeste 15 Nordeste 0 -- -- 94
2018-10-09 04:00:00 17.7 3 Nordeste 9 Nordeste 0 -- -- 95
2018-10-09 03:00:00 17.1 0 Calma 4 Nordeste 0 -- -- 95
2018-10-09 02:00:00 17.5 3 Nordeste 5 Este 0 -- -- 95
2018-10-09 01:00:00 17.5 0 Calma 4 Nordeste 0 -- -- 93
2018-10-09 00:00:00 18.2 0 Calma 4 Nordeste 0 -- -- 93
2018-10-08 23:00:00 18.5 3 Nordeste 5 Nordeste 0 -- -- 92
2018-10-08 22:00:00 19.1 3 Nordeste 6 Nordeste 0 -- -- 92
2018-10-08 21:00:00 19.6 0 Calma 5 Nordeste 0 -- -- 90
2018-10-08 20:00:00 20.4 0 Calma 6 Oeste 0 -- -- 85
2018-10-08 19:00:00 22 2 Sudoeste 9 Sudoeste 0 -- -- 80
2018-10-08 18:00:00 20.6 3 Nordeste 10 Sudoeste 0 -- -- 87
2018-10-08 17:00:00 21.1 5 Sur 13 Sudeste 0 -- -- 86
2018-10-08 16:00:00 21.3 6 Sudoeste 18 Sudoeste 0 -- -- 80
2018-10-08 15:00:00 21.7 7 Sudoeste 18 Sur 0 -- -- 79
2018-10-08 14:00:00 22.7 7 Sur 23 Sudoeste 0 -- -- 74
2018-10-08 13:00:00 22.1 4 Este 17 Nordeste 0 -- -- 77
2018-10-08 12:00:00 22.7 6 Sur 14 Sur 0 -- -- 73
2018-10-08 11:00:00 21.4 4 Sudoeste 6 Sudoeste 0 -- -- 64
2018-10-08 10:00:00 18.2 3 Sudoeste 4 Sudoeste 0 -- -- 70
2018-10-08 09:00:00 16.9 0 Calma 4 Nordeste 0 -- -- 70
2018-10-08 08:00:00 17.2 2 Nordeste 6 Nordeste 0 -- -- 71
2018-10-08 07:00:00 17.5 0 Calma 13 Nordeste 0 -- -- 61
2018-10-08 06:00:00 18.9 8 Nordeste 14 Nordeste 0 -- -- 57
2018-10-08 05:00:00 20.1 6 Nordeste 14 Nordeste 0 -- -- 41
2018-10-08 04:00:00 19.9 2 Este 12 Este 0 -- -- 41
2018-10-08 03:00:00 19.9 3 Nordeste 9 Nordeste 0 -- -- 42
2018-10-08 02:00:00 20.6 4 Este 8 Nordeste 0 -- -- 39
2018-10-08 01:00:00 21.8 2 Este 12 Sudeste 0 -- -- 39
2018-10-08 00:00:00 24.3 5 Sudeste 33 Oeste 0 -- -- 34
2018-10-07 23:00:00 24.1 9 Oeste 31 Sudoeste 0 -- -- 34
2018-10-07 22:00:00 23.9 10 Sudoeste 26 Oeste 0 -- -- 37
2018-10-07 21:00:00 24.9 10 Sudoeste 24 Sudoeste 0 -- -- 37
2018-10-07 20:00:00 26.8 10 Sudoeste 28 Oeste 0 -- -- 33
2018-10-07 19:00:00 29.7 15 Sudoeste 32 Sudoeste 0 -- -- 29
2018-10-07 18:00:00 31.4 18 Sudoeste 34 Sudoeste 0 -- -- 28
2018-10-07 17:00:00 32.6 10 Oeste 39 Sudoeste 0 -- -- 27
2018-10-07 16:00:00 32.5 19 Sudoeste 40 Sudoeste 0 -- -- 27
2018-10-07 15:00:00 31.8 18 Sudoeste 40 Sudoeste 0 -- -- 27
2018-10-07 14:00:00 30 12 Sudoeste 33 Sudoeste 0 -- -- 34
2018-10-07 13:00:00 28.6 6 Sur 26 Sudoeste 0 -- -- 36
2018-10-07 12:00:00 28.7 12 Sudoeste 24 Sudoeste 0 -- -- 31
2018-10-07 11:00:00 26.2 6 Sudoeste 13 Sudoeste 0 -- -- 31
2018-10-07 10:00:00 21.8 2 Sudoeste 6 Sur 0 -- -- 41
2018-10-07 09:00:00 20.5 4 Sur 9 Sur 0 -- -- 44
2018-10-07 08:00:00 19.6 4 Sudeste 8 Sudeste 0 -- -- 44
2018-10-07 07:00:00 19 3 Sudeste 6 Sur 0 -- -- 48
2018-10-07 06:00:00 18.8 0 Calma 11 Nordeste 0 -- -- 53
2018-10-07 05:00:00 19 2 Sur 10 Noroeste 0 -- -- 56
2018-10-07 04:00:00 18.5 0 Calma 8 Nordeste 0 -- -- 70
2018-10-07 03:00:00 18.4 4 Este 9 Sudoeste 0 -- -- 77
2018-10-07 02:00:00 18.3 0 Calma 3 Sudeste 0 -- -- 79
2018-10-07 01:00:00 18.5 0 Calma 9 Nordeste 0 -- -- 78
2018-10-07 00:00:00 18.5 2 Sudeste 8 Nordeste 0 -- -- 83
2018-10-06 23:00:00 18.1 0 Calma 6 Nordeste 0 -- -- 87
2018-10-06 22:00:00 18.3 3 Nordeste 5 Nordeste 0 -- -- 86
2018-10-06 21:00:00 19.4 0 Calma 5 Nordeste 0 -- -- 81
2018-10-06 20:00:00 20.9 2 Nordeste 8 Sudoeste 0 -- -- 75
2018-10-06 19:00:00 23.7 5 Sudoeste 13 Oeste 0 -- -- 65
2018-10-06 18:00:00 23.8 7 Sur 17 Sudoeste 0 -- -- 64
2018-10-06 17:00:00 25.6 9 Sudoeste 22 Sudoeste 0 -- -- 58
2018-10-06 16:00:00 25 10 Sudoeste 21 Sudoeste 0 -- -- 59
2018-10-06 15:00:00 25.1 8 Sur 18 Sur 0 -- -- 60
2018-10-06 14:00:00 24.2 6 Sur 16 Sudoeste 0 -- -- 65
2018-10-06 13:00:00 23.1 4 Norte 19 Oeste 0 -- -- 68
2018-10-06 12:00:00 22.5 7 Sur 12 Sudoeste 0 -- -- 71
2018-10-06 11:00:00 20.8 5 Nordeste 11 Este 0 -- -- 69
2018-10-06 10:00:00 17.6 0 Calma 4 Sudoeste 0 -- -- 71
2018-10-06 09:00:00 15.7 0 Calma 5 Nordeste 0 -- -- 84
2018-10-06 08:00:00 15.7 4 Nordeste 6 Nordeste 0 -- -- 87
2018-10-06 07:00:00 15.5 0 Calma 4 Sudeste 0 -- -- 69
2018-10-06 06:00:00 15.1 0 Calma 4 Nordeste 0 -- -- 66
2018-10-06 05:00:00 15.2 0 Calma 3 Este 0 -- -- 63
2018-10-06 04:00:00 15.4 2 Nordeste 4 Sudeste 0 -- -- 62
2018-10-06 03:00:00 16 0 Calma 5 Nordeste 0 -- -- 60
2018-10-06 02:00:00 16.3 0 Calma 4 Este 0 -- -- 58
2018-10-06 01:00:00 16.2 0 Calma 4 Sudeste 0 -- -- 60
2018-10-06 00:00:00 16.2 2 Nordeste 3 Este 0 -- -- 66
2018-10-05 23:00:00 16.7 0 Calma 2 Este 0 -- -- 77
2018-10-05 22:00:00 17.4 0 Calma 2 Este 0 -- -- 78
2018-10-05 21:00:00 18.4 0 Calma 3 Norte 0 -- -- 76
2018-10-05 20:00:00 20.1 3 Nordeste 11 Nordeste 0 -- -- 70
2018-10-05 19:00:00 21.2 4 Nordeste 15 Nordeste 0 -- -- 61
2018-10-05 18:00:00 22 8 Nordeste 23 Nordeste 0 -- -- 56
2018-10-05 17:00:00 23.2 6 Nordeste 21 Nordeste 0 -- -- 60
2018-10-05 16:00:00 23.1 9 Norte 21 Nordeste 0 -- -- 60
2018-10-05 15:00:00 23.1 9 Nordeste 26 Este 0 -- -- 64
2018-10-05 14:00:00 22.9 7 Nordeste 28 Nordeste 0 -- -- 66
2018-10-05 13:00:00 23.2 7 Nordeste 17 Nordeste 0 -- -- 63
2018-10-05 12:00:00 22.2 8 Nordeste 17 Nordeste 0 -- -- 63
2018-10-05 11:00:00 21.1 7 Nordeste 17 Nordeste 0 -- -- 66
2018-10-05 10:00:00 17.5 0 Calma 3 Sur 0 -- -- 57
2018-10-05 09:00:00 15.3 0 Calma 4 Nordeste 0 -- -- 58
2018-10-05 08:00:00 15.4 2 Nordeste 6 Nordeste 0 -- -- 56
2018-10-05 07:00:00 15.6 3 Nordeste 6 Nordeste 0 -- -- 54
2018-10-05 06:00:00 15.2 0 Calma 6 Este 0 -- -- 57
2018-10-05 05:00:00 16.4 3 Nordeste 8 Este 0 -- -- 52
2018-10-05 04:00:00 16.5 3 Nordeste 5 Este 0 -- -- 52
2018-10-05 03:00:00 16.2 2 Nordeste 4 Este 0 -- -- 53
2018-10-05 02:00:00 16.6 0 Calma 5 Este 0 -- -- 54
2018-10-05 01:00:00 16.8 0 Calma 3 Este 0 -- -- 58
2018-10-05 00:00:00 17.1 2 Sudeste 5 Nordeste 0 -- -- 57
2018-10-04 23:00:00 17.8 0 Calma 10 Nordeste 0 -- -- 58
2018-10-04 22:00:00 18.5 6 Nordeste 11 Nordeste 0 -- -- 54
2018-10-04 21:00:00 19 0 Calma -- -- 0 -- -- 58
2018-10-04 20:00:00 21.2 0 Calma 9 Nordeste 0 -- -- 51
2018-10-04 19:00:00 22.6 6 Nordeste 17 Este 0 -- -- 44
2018-10-04 18:00:00 23.7 8 Nordeste 19 Nordeste 0 -- -- 36
2018-10-04 17:00:00 23.4 8 Nordeste 20 Nordeste 0 -- -- 52
2018-10-04 16:00:00 23.9 9 Nordeste 20 Este 0 -- -- 46
2018-10-04 15:00:00 23.3 9 Nordeste 18 Nordeste 0 -- -- 57
2018-10-04 14:00:00 23.2 8 Nordeste 22 Nordeste 0 -- -- 64
2018-10-04 13:00:00 23.3 8 Nordeste 15 Nordeste 0 -- -- 63
2018-10-04 12:00:00 23.1 6 Nordeste 13 Nordeste 0 -- -- 61
2018-10-04 11:00:00 21.5 0 Calma 8 Nordeste 0 -- -- 45
2018-10-04 10:00:00 18.3 0 Calma 5 Sudeste 0 -- -- 50
2018-10-04 09:00:00 16.4 3 Nordeste 7 Nordeste 0 -- -- 53
2018-10-04 08:00:00 15.6 0 Calma 3 Este 0 -- -- 52
2018-10-04 07:00:00 15.7 0 Calma 5 Sudeste 0 -- -- 51
2018-10-04 06:00:00 15.8 2 Nordeste 4 Nordeste 0 -- -- 49
2018-10-04 05:00:00 15.9 0 Calma 3 Este 0 -- -- 50
2018-10-04 04:00:00 16 0 Calma 4 Este 0 -- -- 51
2018-10-04 03:00:00 16.4 0 Calma 4 Este 0 -- -- 48
2018-10-04 02:00:00 16.6 0 Calma 7 Nordeste 0 -- -- 55
2018-10-04 01:00:00 17.1 3 Este 10 Este 0 -- -- 54
2018-10-04 00:00:00 18 2 Este 19 Norte 0 -- -- 64
2018-10-03 23:00:00 18.5 9 Nordeste 18 Nordeste 0 -- -- 73
2018-10-03 22:00:00 17.8 4 Nordeste 10 Nordeste 0 -- -- 82
2018-10-03 21:00:00 18.6 0 Calma 4 Sudoeste 0 -- -- 86
2018-10-03 20:00:00 20.5 2 Sudoeste 10 Sudoeste 0 -- -- 79
2018-10-03 19:00:00 20.7 4 Nordeste 12 Nordeste 0 -- -- 77
2018-10-03 18:00:00 21.4 5 Nordeste 17 Nordeste 0 -- -- 76
2018-10-03 17:00:00 22 8 Nordeste 19 Nordeste 0 -- -- 76
2018-10-03 16:00:00 22 12 Nordeste 22 Este 0 -- -- 76
2018-10-03 15:00:00 21.3 10 Nordeste 21 Este 0 -- -- 78
2018-10-03 14:00:00 21.5 6 Nordeste 21 Nordeste 0 -- -- 78
2018-10-03 13:00:00 22.4 6 Este 25 Nordeste 0 -- -- 75
2018-10-03 12:00:00 22.2 7 Nordeste 19 Nordeste 0 -- -- 73
2018-10-03 11:00:00 21.1 5 Nordeste 11 Este 0 -- -- 69
2018-10-03 10:00:00 17.8 0 Calma 7 Nordeste -- -- -- 85
2018-10-03 09:00:00 15.8 0 Calma 5 Nordeste 0 -- -- 89
2018-10-03 08:00:00 15.8 0 Calma 7 Nordeste 0 -- -- 90
2018-10-03 07:00:00 16 4 Nordeste 7 Nordeste 0 -- -- 93
2018-10-03 06:00:00 16.2 3 Este 4 Nordeste 0 -- -- 94
2018-10-03 05:00:00 16.6 0 Calma 3 Este 0 -- -- 93
2018-10-03 04:00:00 17.4 0 Calma 5 Este 0 -- -- 92
2018-10-03 03:00:00 18.5 2 Este 11 Nordeste 0 -- -- 92
2018-10-03 02:00:00 17.9 0 Calma 4 Sudeste 0 -- -- 93
2018-10-03 01:00:00 18.2 0 Calma 4 Este 0 -- -- 91
2018-10-03 00:00:00 18.9 0 Calma 4 Sudeste 0 -- -- 93
2018-10-02 23:00:00 19.5 0 Calma 4 Oeste 0 -- -- 90
2018-10-02 22:00:00 20.4 2 Sudoeste 6 Sudoeste 0 -- -- 85
2018-10-02 21:00:00 20.7 0 Calma 3 Sudoeste 0 -- -- 81
2018-10-02 20:00:00 20.9 0 Calma 6 Norte 0 -- -- 78
2018-10-02 19:00:00 21.2 3 Nordeste 14 Nordeste 0 -- -- 78
2018-10-02 18:00:00 21.5 5 Nordeste 14 Nordeste 0 -- -- 76
2018-10-02 17:00:00 21.9 3 Sudeste 12 Sudoeste 0 -- -- 76
2018-10-02 16:00:00 22.4 4 Sur 17 Sudoeste 0 -- -- 78
2018-10-02 15:00:00 24.3 7 Sudoeste 22 Nordeste 0 -- -- 69
2018-10-02 14:00:00 24.2 5 Oeste 23 Nordeste 0 -- -- 73
2018-10-02 13:00:00 22.9 10 Nordeste 23 Nordeste 0 -- -- 75
2018-10-02 12:00:00 21.8 2 Oeste 7 Sudoeste 0 -- -- 80
2018-10-02 11:00:00 21.1 3 Sudoeste 6 Sudoeste 0 -- -- 82
2018-10-02 10:00:00 19.4 3 Sudoeste 14 Nordeste 0 -- -- 86
2018-10-02 09:00:00 18.1 6 Este 12 Este 0 -- -- 85
2018-10-02 08:00:00 17.8 0 Calma 8 Sur 0 -- -- 88
2018-10-02 07:00:00 17.8 0 Calma 4 Sudeste 0 -- -- 85
2018-10-02 06:00:00 18.2 0 Calma 9 Nordeste 0 -- -- 79
2018-10-02 05:00:00 18.8 4 Nordeste 5 Nordeste 0 -- -- 75
2018-10-02 04:00:00 19.3 0 Calma 13 Este 0 -- -- 74
2018-10-02 03:00:00 20.8 12 Nordeste 17 Este 0 -- -- 64
2018-10-02 02:00:00 21 3 Nordeste 5 Nordeste 0 -- -- 66
2018-10-02 01:00:00 21.1 2 Sudeste 8 Nordeste 0 -- -- 64
2018-10-02 00:00:00 20.7 2 Sudeste 6 Nordeste 0 -- -- 66
2018-10-01 23:00:00 21.3 6 Nordeste 11 Nordeste 0 -- -- 66
2018-10-01 22:00:00 21.4 2 Sudeste 15 Nordeste 0 -- -- 67
2018-10-01 21:00:00 21.9 8 Nordeste 15 Nordeste 0 -- -- 66
2018-10-01 20:00:00 23.5 5 Este 10 Este 0 -- -- 56
2018-10-01 19:00:00 22.4 3 Nordeste 18 Noroeste 0 -- -- 69
2018-10-01 18:00:00 20.6 3 Sur 13 Nordeste 0 -- -- 85
2018-10-01 17:00:00 20.8 5 Este 23 Norte 4.8 -- -- 84
2018-10-01 16:00:00 27.1 2 Nordeste 19 Oeste 0 -- -- 58
2018-10-01 15:00:00 30.1 9 Sudoeste 17 Sur 0 -- -- 43
2018-10-01 14:00:00 29.2 9 Sudoeste 16 Sudoeste 0 -- -- 45
2018-10-01 13:00:00 27.3 6 Sudoeste 10 Oeste 0 -- -- 60
2018-10-01 12:00:00 25.6 5 Sudoeste 10 Sudoeste 0 -- -- 70
2018-10-01 11:00:00 24.1 3 Sudoeste 6 Sudoeste 0 -- -- 64
2018-10-01 10:00:00 22.1 0 Calma 4 Este 0 -- -- 64
2018-10-01 09:00:00 20.7 4 Nordeste 10 Nordeste 0 -- -- 66
2018-10-01 08:00:00 20.3 7 Nordeste 10 Nordeste 0 -- -- 71
2018-10-01 07:00:00 19 0 Calma 8 Nordeste 0 -- -- 80
2018-10-01 06:00:00 18.8 0 Calma 8 Nordeste 0 -- -- 91
2018-10-01 05:00:00 18.7 0 Calma 3 Nordeste 0 -- -- 93
2018-10-01 04:00:00 18.8 0 Calma 2 Noroeste 0 -- -- 94
2018-10-01 03:00:00 18.9 2 Sur 5 Nordeste 0 -- -- 94
2018-10-01 02:00:00 18.9 0 Calma 8 Nordeste 0 -- -- 93
2018-10-01 01:00:00 19.4 2 Este 5 Nordeste 0 -- -- 90
2018-10-01 00:00:00 19.6 3 Este 6 Este 0 -- -- 87
2018-09-30 23:00:00 19.4 0 Calma 4 Nordeste 0 -- -- 91
2018-09-30 22:00:00 19.8 0 Calma 6 Oeste 0 -- -- 91
2018-09-30 21:00:00 20 0 Calma 6 Nordeste 0 -- -- 88
2018-09-30 20:00:00 21 0 Calma 9 Sur 0 -- -- 82
2018-09-30 19:00:00 21 4 Sur 15 Sudoeste 0 -- -- 82
2018-09-30 18:00:00 22.5 6 Sur 14 Sur 0 -- -- 74
2018-09-30 17:00:00 25.4 7 Sudoeste 14 Sudoeste 0 -- -- 64
2018-09-30 16:00:00 24 6 Sudoeste 17 Sudoeste 0 -- -- 69
2018-09-30 15:00:00 23.5 7 Sudoeste 18 Sudoeste 0 -- -- 71
2018-09-30 14:00:00 24.3 8 Sur 18 Sudoeste 0 -- -- 67
2018-09-30 13:00:00 24.2 7 Sudoeste 18 Sudoeste 0 -- -- 67
2018-09-30 12:00:00 23 5 Sur 17 Sur 0 -- -- 66
2018-09-30 11:00:00 21.1 4 Este 12 Nordeste 0 -- -- 66
2018-09-30 10:00:00 18.4 0 Calma 7 Nordeste 0 -- -- 74
2018-09-30 09:00:00 16.4 0 Calma 5 Nordeste 0 -- -- 87
2018-09-30 08:00:00 16.2 0 Calma 2 Sudeste 0 -- -- 93
2018-09-30 07:00:00 16.6 0 Calma 3 Sudeste 0 -- -- 92
2018-09-30 06:00:00 16.7 2 Este 5 Nordeste 0 -- -- 93
2018-09-30 05:00:00 16.6 0 Calma 4 Nordeste 0 -- -- 93
2018-09-30 04:00:00 16.8 4 Nordeste 5 Nordeste 0 -- -- 92
2018-09-30 03:00:00 17.1 0 Calma 4 Este 0 -- -- 91
2018-09-30 02:00:00 17.3 0 Calma 6 Nordeste 0 -- -- 90
2018-09-30 01:00:00 17.5 0 Calma 6 Este 0 -- -- 91
2018-09-30 00:00:00 17.8 3 Nordeste 4 Nordeste 0 -- -- 90
2018-09-29 23:00:00 18.1 0 Calma 4 Nordeste 0 -- -- 87
2018-09-29 22:00:00 18.6 2 Norte 4 Nordeste 0 -- -- 86
2018-09-29 21:00:00 19.9 0 Calma 5 Sur 0 -- -- 79
2018-09-29 20:00:00 21.5 2 Nordeste 11 Sur 0 -- -- 72
2018-09-29 19:00:00 23.3 4 Oeste 14 Sur 0 -- -- 65
2018-09-29 18:00:00 24.3 4 Oeste 14 Sudoeste 0 -- -- 62
2018-09-29 17:00:00 25.1 7 Sur 18 Sudoeste 0 -- -- 60
2018-09-29 16:00:00 24.9 6 Sudeste 19 Sudoeste 0 -- -- 61
2018-09-29 15:00:00 24.9 7 Sur 20 Oeste 0 -- -- 61
2018-09-29 14:00:00 24.5 8 Sur 24 Sur 0 -- -- 62
2018-09-29 13:00:00 24.3 7 Sudoeste 18 Sur 0 -- -- 61
2018-09-29 12:00:00 22.9 4 Sur 14 Nordeste 0 -- -- 63
2018-09-29 11:00:00 21.6 5 Norte 12 Nordeste 0 -- -- 65
2018-09-29 10:00:00 19.4 4 Nordeste 8 Nordeste 0 -- -- 74
2018-09-29 09:00:00 16.6 0 Calma 2 Este 0 -- -- 84
2018-09-29 08:00:00 16.4 0 Calma 3 Nordeste 0 -- -- 84
2018-09-29 07:00:00 16.7 2 Nordeste 3 Sudeste 0 -- -- 84
2018-09-29 06:00:00 17.2 0 Calma 6 Este 0 -- -- 82
2018-09-29 05:00:00 17.8 4 Nordeste 9 Nordeste 0 -- -- 80
2018-09-29 04:00:00 19.1 5 Nordeste 15 Nordeste 0 -- -- 75
2018-09-29 03:00:00 19.4 4 Nordeste 9 Nordeste 0 -- -- 75
2018-09-29 02:00:00 19.3 3 Nordeste 8 Este 0 -- -- 77
2018-09-29 01:00:00 18.7 3 Este 7 Nordeste 0 -- -- 81
2018-09-29 00:00:00 18.5 2 Nordeste 13 Nordeste 0 -- -- 81
2018-09-28 23:00:00 18.2 0 Calma 3 Nordeste 0 -- -- 81
2018-09-28 22:00:00 18.4 0 Calma 3 Este 0 -- -- 85
2018-09-28 21:00:00 18.7 0 Calma 4 Este 0 -- -- 81
2018-09-28 20:00:00 19.9 2 Nordeste 10 Nordeste 0 -- -- 75
2018-09-28 19:00:00 20.7 2 Oeste 14 Nordeste 0 -- -- 75
2018-09-28 18:00:00 21.2 4 Norte 18 Nordeste 0 -- -- 77
2018-09-28 17:00:00 22.3 9 Nordeste 25 Nordeste 0 -- -- 72
2018-09-28 16:00:00 23 8 Nordeste 33 Nordeste 0 -- -- 68
2018-09-28 15:00:00 23 11 Nordeste 28 Este 0 -- -- 66
2018-09-28 14:00:00 22.6 12 Nordeste 26 Nordeste 0 -- -- 67
2018-09-28 13:00:00 21.9 9 Nordeste 26 Este 0 -- -- 68
2018-09-28 12:00:00 20.8 8 Nordeste 23 Nordeste 0 -- -- 79
2018-09-28 11:00:00 20.1 8 Nordeste 19 Nordeste 1.8 -- -- 81
2018-09-28 10:00:00 19.8 4 Nordeste 17 Nordeste 0 -- -- 84
2018-09-28 09:00:00 19.5 3 Nordeste 19 Este 0 -- -- 85
2018-09-28 08:00:00 19.4 4 Sudeste 17 Este 0 -- -- 84
2018-09-28 07:00:00 19.4 4 Norte 13 Este 0 -- -- 84
2018-09-28 06:00:00 19.5 3 Nordeste 15 Este 0 -- -- 87
2018-09-28 05:00:00 19.7 5 Este 14 Nordeste 0 -- -- 87
2018-09-28 04:00:00 19.7 6 Este 17 Nordeste 0 -- -- 87
2018-09-28 03:00:00 19.8 4 Sudeste 17 Este 0 -- -- 85
2018-09-28 02:00:00 -- -- -- -- -- -- -- -- --
2018-09-28 01:00:00 -- -- -- -- -- -- -- -- --
2018-09-28 00:00:00 -- -- -- -- -- -- -- -- --
2018-09-27 23:00:00 -- -- -- -- -- -- -- -- --
2018-09-27 22:00:00 -- -- -- -- -- -- -- -- --
2018-09-27 21:00:00 -- -- -- -- -- -- -- -- --
2018-09-27 20:00:00 -- -- -- -- -- -- -- -- --
2018-09-27 19:00:00 -- -- -- -- -- -- -- -- --
2018-09-27 18:00:00 -- -- -- -- -- -- -- -- --
2018-09-27 17:00:00 -- -- -- -- -- -- -- -- --
2018-09-27 16:00:00 -- -- -- -- -- -- -- -- --
2018-09-27 15:00:00 -- -- -- -- -- -- -- -- --
2018-09-27 14:00:00 -- -- -- -- -- -- -- -- --
2018-09-27 13:00:00 -- -- -- -- -- -- -- -- --
2018-09-27 12:00:00 -- -- -- -- -- -- -- -- --
2018-09-27 11:00:00 -- -- -- -- -- -- -- -- --
2018-09-27 10:00:00 -- -- -- -- -- -- -- -- --
2018-09-27 09:00:00 -- -- -- -- -- -- -- -- --
2018-09-27 08:00:00 -- -- -- -- -- -- -- -- --
2018-09-27 07:00:00 -- -- -- -- -- -- -- -- --
2018-09-27 06:00:00 -- -- -- -- -- -- -- -- --
2018-09-27 05:00:00 -- -- -- -- -- -- -- -- --
2018-09-27 04:00:00 -- -- -- -- -- -- -- -- --
2018-09-27 03:00:00 -- -- -- -- -- -- -- -- --
2018-09-27 02:00:00 -- -- -- -- -- -- -- -- --
2018-09-27 01:00:00 -- -- -- -- -- -- -- -- --
2018-09-27 00:00:00 -- -- -- -- -- -- -- -- --
2018-09-26 23:00:00 -- -- -- -- -- -- -- -- --
2018-09-26 22:00:00 -- -- -- -- -- -- -- -- --
2018-09-26 21:00:00 -- -- -- -- -- -- -- -- --
2018-09-26 20:00:00 -- -- -- -- -- -- -- -- --
2018-09-26 19:00:00 -- -- -- -- -- -- -- -- --
2018-09-26 18:00:00 -- -- -- -- -- -- -- -- --
2018-09-26 17:00:00 -- -- -- -- -- -- -- -- --
2018-09-26 16:00:00 -- -- -- -- -- -- -- -- --
2018-09-26 15:00:00 -- -- -- -- -- -- -- -- --
2018-09-26 14:00:00 -- -- -- -- -- -- -- -- --
2018-09-26 13:00:00 -- -- -- -- -- -- -- -- --
2018-09-26 12:00:00 -- -- -- -- -- -- -- -- --
2018-09-26 11:00:00 -- -- -- -- -- -- -- -- --
2018-09-26 10:00:00 -- -- -- -- -- -- -- -- --
2018-09-26 09:00:00 -- -- -- -- -- -- -- -- --
2018-09-26 08:00:00 -- -- -- -- -- -- -- -- --
2018-09-26 07:00:00 -- -- -- -- -- -- -- -- --
2018-09-26 06:00:00 -- -- -- -- -- -- -- -- --
2018-09-26 05:00:00 -- -- -- -- -- -- -- -- --
2018-09-26 04:00:00 -- -- -- -- -- -- -- -- --
2018-09-26 03:00:00 -- -- -- -- -- -- -- -- --
2018-09-26 02:00:00 -- -- -- -- -- -- -- -- --
2018-09-26 01:00:00 -- -- -- -- -- -- -- -- --
2018-09-26 00:00:00 -- -- -- -- -- -- -- -- --
2018-09-25 23:00:00 -- -- -- -- -- -- -- -- --
2018-09-25 22:00:00 -- -- -- -- -- -- -- -- --
2018-09-25 21:00:00 -- -- -- -- -- -- -- -- --
2018-09-25 20:00:00 -- -- -- -- -- -- -- -- --
2018-09-25 19:00:00 -- -- -- -- -- -- -- -- --
2018-09-25 18:00:00 -- -- -- -- -- -- -- -- --
2018-09-25 17:00:00 -- -- -- -- -- -- -- -- --
2018-09-25 16:00:00 -- -- -- -- -- -- -- -- --
2018-09-25 15:00:00 -- -- -- -- -- -- -- -- --
2018-09-25 14:00:00 -- -- -- -- -- -- -- -- --
2018-09-25 13:00:00 -- -- -- -- -- -- -- -- --
2018-09-25 12:00:00 -- -- -- -- -- -- -- -- --
2018-09-25 11:00:00 -- -- -- -- -- -- -- -- --
2018-09-25 10:00:00 -- -- -- -- -- -- -- -- --
2018-09-25 09:00:00 -- -- -- -- -- -- -- -- --
2018-09-25 08:00:00 -- -- -- -- -- -- -- -- --
2018-09-25 07:00:00 -- -- -- -- -- -- -- -- --
2018-09-25 06:00:00 -- -- -- -- -- -- -- -- --
2018-09-25 05:00:00 -- -- -- -- -- -- -- -- --
2018-09-25 04:00:00 -- -- -- -- -- -- -- -- --
2018-09-25 03:00:00 -- -- -- -- -- -- -- -- --
2018-09-25 02:00:00 -- -- -- -- -- -- -- -- --
2018-09-25 01:00:00 -- -- -- -- -- -- -- -- --
2018-09-25 00:00:00 -- -- -- -- -- -- -- -- --
2018-09-24 23:00:00 -- -- -- -- -- -- -- -- --
2018-09-24 22:00:00 -- -- -- -- -- -- -- -- --
2018-09-24 21:00:00 -- -- -- -- -- -- -- -- --
2018-09-24 20:00:00 -- -- -- -- -- -- -- -- --
2018-09-24 19:00:00 -- -- -- -- -- -- -- -- --
2018-09-24 18:00:00 -- -- -- -- -- -- -- -- --
2018-09-24 17:00:00 -- -- -- -- -- -- -- -- --
2018-09-24 16:00:00 -- -- -- -- -- -- -- -- --
2018-09-24 15:00:00 -- -- -- -- -- -- -- -- --
2018-09-24 14:00:00 -- -- -- -- -- -- -- -- --
2018-09-24 13:00:00 -- -- -- -- -- -- -- -- --
2018-09-24 12:00:00 -- -- -- -- -- -- -- -- --
2018-09-24 11:00:00 -- -- -- -- -- -- -- -- --
2018-09-24 10:00:00 -- -- -- -- -- -- -- -- --
2018-09-24 09:00:00 -- -- -- -- -- -- -- -- --
2018-09-24 08:00:00 -- -- -- -- -- -- -- -- --
2018-09-24 07:00:00 -- -- -- -- -- -- -- -- --
2018-09-24 06:00:00 -- -- -- -- -- -- -- -- --
2018-09-24 05:00:00 -- -- -- -- -- -- -- -- --
2018-09-24 04:00:00 -- -- -- -- -- -- -- -- --
2018-09-24 03:00:00 -- -- -- -- -- -- -- -- --
2018-09-24 02:00:00 21.2 0 Calma 5 Nordeste 0 -- -- 47
2018-09-24 01:00:00 21.4 0 Calma 6 Nordeste 0 -- -- 48
2018-09-24 00:00:00 21.7 4 Este 8 Norte 0 -- -- 48
2018-09-23 23:00:00 21.6 0 Calma 4 Sudeste 0 -- -- 57
2018-09-23 22:00:00 22.3 0 Calma 3 Sudoeste 0 -- -- 55
2018-09-23 21:00:00 23.8 0 Calma 6 Sudoeste 0 -- -- 52
2018-09-23 20:00:00 26.2 3 Sudoeste 12 Oeste 0 -- -- 46
2018-09-23 19:00:00 26.9 4 Nordeste 17 Nordeste 0 -- -- 39
2018-09-23 18:00:00 27.5 10 Norte 19 Nordeste 0 -- -- 39
2018-09-23 17:00:00 28.8 4 Nordeste 24 Sudoeste 0 -- -- 38
2018-09-23 16:00:00 29.8 9 Sudoeste 20 Sudoeste 0 -- -- 37
2018-09-23 15:00:00 29.5 7 Oeste 22 Nordeste 0 -- -- 35
2018-09-23 14:00:00 28.4 10 Nordeste 27 Nordeste 0 -- -- 35
2018-09-23 13:00:00 28.9 7 Nordeste 21 Este 0 -- -- 34
2018-09-23 12:00:00 28.9 6 Este 20 Nordeste 0 -- -- 34
2018-09-23 11:00:00 27.9 7 Nordeste 19 Nordeste 0 -- -- 34
2018-09-23 10:00:00 25.9 7 Nordeste 21 Nordeste 0 -- -- 35
2018-09-23 09:00:00 -- -- -- -- -- -- -- -- --
2018-09-23 08:00:00 -- -- -- -- -- -- -- -- --
2018-09-23 07:00:00 -- -- -- -- -- -- -- -- --
2018-09-23 06:00:00 -- -- -- -- -- -- -- -- --
2018-09-23 05:00:00 -- -- -- -- -- -- -- -- --
2018-09-23 04:00:00 -- -- -- -- -- -- -- -- --
2018-09-23 03:00:00 -- -- -- -- -- -- -- -- --
2018-09-23 02:00:00 19.9 0 Calma 6 Nordeste 0 -- -- 48
2018-09-23 01:00:00 -- -- -- -- -- -- -- -- --
2018-09-23 00:00:00 -- -- -- -- -- -- -- -- --
2018-09-22 23:00:00 -- -- -- -- -- -- -- -- --
2018-09-22 22:00:00 -- -- -- -- -- -- -- -- --
2018-09-22 21:00:00 22.7 0 Calma 4 Sudoeste 0 -- -- 61
2018-09-22 20:00:00 24.7 0 Calma 9 Este 0 -- -- 50
2018-09-22 19:00:00 25.7 6 Norte 17 Nordeste 0 -- -- 49
2018-09-22 18:00:00 26.7 6 Nordeste 16 Nordeste 0 -- -- 49
2018-09-22 17:00:00 27.7 5 Nordeste 15 Sudeste 0 -- -- 46
2018-09-22 16:00:00 27.7 5 Este 27 Nordeste 0 -- -- 52
2018-09-22 15:00:00 26.8 9 Nordeste 21 Nordeste 0 -- -- 58
2018-09-22 14:00:00 26.7 9 Nordeste 21 Nordeste 0 -- -- 57
2018-09-22 13:00:00 26.6 6 Este 20 Nordeste 0 -- -- 60
2018-09-22 12:00:00 26 9 Nordeste 17 Nordeste 0 -- -- 59
2018-09-22 11:00:00 23.7 4 Sudoeste 9 Norte 0 -- -- 64
2018-09-22 10:00:00 21.5 3 Sur 8 Nordeste 0 -- -- 64
2018-09-22 09:00:00 19.1 3 Este 4 Nordeste 0 -- -- 68
2018-09-22 08:00:00 19.2 3 Nordeste 7 Este 0 -- -- 64
2018-09-22 07:00:00 19.4 0 Calma 5 Nordeste 0 -- -- 64
2018-09-22 06:00:00 19.7 3 Nordeste 6 Nordeste 0 -- -- 62
2018-09-22 05:00:00 20.2 0 Calma 7 Nordeste 0 -- -- 61
2018-09-22 04:00:00 20.3 3 Nordeste 4 Nordeste 0 -- -- 62
2018-09-22 03:00:00 20.3 3 Este 5 Nordeste 0 -- -- 59
2018-09-22 02:00:00 20.4 4 Este 5 Este 0 -- -- 66
2018-09-22 01:00:00 20.6 0 Calma 3 Sudeste 0 -- -- 71
2018-09-22 00:00:00 20.8 0 Calma 4 Nordeste 0 -- -- 73
2018-09-21 23:00:00 21.2 0 Calma 5 Este 0 -- -- 67
2018-09-21 22:00:00 21.8 4 Nordeste 4 Nordeste 0 -- -- 64
2018-09-21 21:00:00 22.8 0 Calma 3 Sudoeste 0 -- -- 76
2018-09-21 20:00:00 24.4 2 Oeste 9 Sudoeste 0 -- -- 70
2018-09-21 19:00:00 26.9 3 Oeste 16 Oeste 0 -- -- 57
2018-09-21 18:00:00 28.2 8 Sudoeste 15 Sudoeste 0 -- -- 58
2018-09-21 17:00:00 28.7 9 Sudoeste 17 Sudoeste 0 -- -- 54
2018-09-21 16:00:00 27.9 8 Sur 18 Sudoeste 0 -- -- 56
2018-09-21 15:00:00 27.9 9 Sudoeste 19 Sudoeste 0 -- -- 59
2018-09-21 14:00:00 27.7 9 Sudoeste 18 Sudoeste 0 -- -- 60
2018-09-21 13:00:00 26.9 7 Sur 17 Sudoeste 0 -- -- 62
2018-09-21 12:00:00 25.5 7 Sur 14 Sur 0 -- -- 63
2018-09-21 11:00:00 23.5 4 Sudoeste 8 Sudoeste 0 -- -- 70
2018-09-21 10:00:00 21.3 2 Sudoeste 3 Sudoeste 0 -- -- 80
2018-09-21 09:00:00 19 0 Calma 3 Sudeste 0 -- -- 87
2018-09-21 08:00:00 18.5 0 Calma 2 Sudeste 0 -- -- 85
2018-09-21 07:00:00 18.5 0 Calma 2 Este 0 -- -- 82
2018-09-21 06:00:00 18.7 0 Calma 5 Nordeste 0 -- -- 81
2018-09-21 05:00:00 19 5 Nordeste 8 Nordeste 0 -- -- 78
2018-09-21 04:00:00 19.1 2 Este 5 Nordeste 0 -- -- 85
2018-09-21 03:00:00 19.1 3 Nordeste 5 Nordeste 0 -- -- 86
2018-09-21 02:00:00 19.2 0 Calma 3 Sudeste 0 -- -- 86
2018-09-21 01:00:00 19.5 0 Calma 3 Este 0 -- -- 86
2018-09-21 00:00:00 19.9 0 Calma 5 Este 0 -- -- 88
2018-09-20 23:00:00 20.2 0 Calma 3 Este 0 -- -- 89
2018-09-20 22:00:00 20.7 2 Nordeste 4 Nordeste 0 -- -- 87
2018-09-20 21:00:00 21.5 3 Nordeste 6 Este 0 -- -- 83
2018-09-20 20:00:00 22.9 3 Nordeste 12 Sudeste 0 -- -- 78
2018-09-20 19:00:00 24.1 6 Nordeste 10 Nordeste 0 -- -- 74
2018-09-20 18:00:00 24.6 3 Norte 16 Norte 0 -- -- 75
2018-09-20 17:00:00 25 7 Nordeste 21 Nordeste 0 -- -- 72
2018-09-20 16:00:00 25.6 11 Nordeste 21 Nordeste 0 -- -- 70
2018-09-20 15:00:00 25.6 8 Nordeste 22 Nordeste 0 -- -- 72
2018-09-20 14:00:00 25.2 7 Nordeste 19 Este 0 -- -- 73
2018-09-20 13:00:00 24.6 6 Nordeste 19 Nordeste 0 -- -- 76
2018-09-20 12:00:00 23.1 6 Nordeste 16 Norte 0 -- -- 80
2018-09-20 11:00:00 23.1 5 Nordeste 13 Nordeste 0 -- -- 79
2018-09-20 10:00:00 21 2 Nordeste 5 Este 0 -- -- 82
2018-09-20 09:00:00 19.5 0 Calma 4 Sudeste 0 -- -- 86
2018-09-20 08:00:00 18.9 2 Nordeste 6 Este 0 -- -- 87
2018-09-20 07:00:00 18.7 2 Nordeste 4 Nordeste 0 -- -- 89
2018-09-20 06:00:00 18.7 0 Calma 3 Nordeste 0 -- -- 87
2018-09-20 05:00:00 19 3 Nordeste 5 Nordeste 0 -- -- 87
2018-09-20 04:00:00 19.1 0 Calma 3 Este 0 -- -- 88
2018-09-20 03:00:00 19.5 2 Este 4 Nordeste 0 -- -- 88
2018-09-20 02:00:00 20.3 0 Calma 14 Nordeste 0 -- -- 84
2018-09-20 01:00:00 20.6 3 Este 12 Nordeste 0 -- -- 89
2018-09-20 00:00:00 20.2 5 Nordeste 8 Este 0 -- -- 88